Map

Track Data

SID SEASON NUMBER BASIN SUBBASIN NAME ISO_TIME NATURE LAT LON WMO_WIND WMO_PRES WMO_AGENCY TRACK_TYPE DIST2LAND LANDFALL IFLAG USA_AGENCY USA_ATCF_ID USA_LAT USA_LON USA_RECORD USA_STATUS USA_WIND USA_PRES USA_SSHS USA_R34_NE USA_R34_SE USA_R34_SW USA_R34_NW USA_R50_NE USA_R50_SE USA_R50_SW USA_R50_NW USA_R64_NE USA_R64_SE USA_R64_SW USA_R64_NW USA_POCI USA_ROCI USA_RMW USA_EYE TOKYO_LAT TOKYO_LON TOKYO_GRADE TOKYO_WIND TOKYO_PRES TOKYO_R50_DIR TOKYO_R50_LONG TOKYO_R50_SHORT TOKYO_R30_DIR TOKYO_R30_LONG TOKYO_R30_SHORT TOKYO_LAND CMA_LAT CMA_LON CMA_CAT CMA_WIND CMA_PRES HKO_LAT HKO_LON HKO_CAT HKO_WIND HKO_PRES NEWDELHI_LAT NEWDELHI_LON NEWDELHI_GRADE NEWDELHI_WIND NEWDELHI_PRES NEWDELHI_CI NEWDELHI_DP NEWDELHI_POCI REUNION_LAT REUNION_LON REUNION_TYPE REUNION_WIND REUNION_PRES REUNION_TNUM REUNION_CI REUNION_RMW REUNION_R34_NE REUNION_R34_SE REUNION_R34_SW REUNION_R34_NW REUNION_R50_NE REUNION_R50_SE REUNION_R50_SW REUNION_R50_NW REUNION_R64_NE REUNION_R64_SE REUNION_R64_SW REUNION_R64_NW BOM_LAT BOM_LON BOM_TYPE BOM_WIND BOM_PRES BOM_TNUM BOM_CI BOM_RMW BOM_R34_NE BOM_R34_SE BOM_R34_SW BOM_R34_NW BOM_R50_NE BOM_R50_SE BOM_R50_SW BOM_R50_NW BOM_R64_NE BOM_R64_SE BOM_R64_SW BOM_R64_NW BOM_ROCI BOM_POCI BOM_EYE BOM_POS_METHOD BOM_PRES_METHOD NADI_LAT NADI_LON NADI_CAT NADI_WIND NADI_PRES WELLINGTON_LAT WELLINGTON_LON WELLINGTON_WIND WELLINGTON_PRES DS824_LAT DS824_LON DS824_STAGE DS824_WIND DS824_PRES TD9636_LAT TD9636_LON TD9636_STAGE TD9636_WIND TD9636_PRES TD9635_LAT TD9635_LON TD9635_WIND TD9635_PRES TD9635_ROCI NEUMANN_LAT NEUMANN_LON NEUMANN_CLASS NEUMANN_WIND NEUMANN_PRES MLC_LAT MLC_LON MLC_CLASS MLC_WIND MLC_PRES USA_GUST BOM_GUST BOM_GUST_PER REUNION_GUST REUNION_GUST_PER USA_SEAHGT USA_SEARAD_NE USA_SEARAD_SE USA_SEARAD_SW USA_SEARAD_NW STORM_SPEED STORM_DIR
1977313N09092 1977 109 NI BB NOT_NAMED 1977-11-09 00:00:00 TS 8.50000 91.6000 main 513 513 O________OO___ jtwc_io IO051977 8.50000 91.6000 -1 8.50000 91.6000 TC 8.50000 91.6000 1 13 299
1977313N09092 1977 109 NI BB NOT_NAMED 1977-11-09 03:00:00 TS 8.80371 91.0469 main 586 586 P________PP___ IO051977 8.80519 91.0402 -1 8.80519 91.0402 TC 8.80073 91.0603 1 12 299
1977313N09092 1977 109 NI BB NOT_NAMED 1977-11-09 06:00:00 TS 9.09696 90.5087 main 650 650 O________OP___ jtwc_io IO051977 9.10000 90.5000 -1 9.10000 90.5000 TC 9.09088 90.5260 1 12 299
1977313N09092 1977 109 NI BB NOT_NAMED 1977-11-09 09:00:00 TS 9.36845 89.9962 main 714 714 P________PP___ IO051977 9.37240 89.9925 -1 9.37240 89.9925 TC 9.36057 90.0037 1 11 297
1977313N09092 1977 109 NI BB NOT_NAMED 1977-11-09 12:00:00 TS 9.60000 89.5000 main 772 772 O________OO___ jtwc_io IO051977 9.60000 89.5000 -1 9.60000 89.5000 TC 9.60000 89.5000 1 11 292
1977313N09092 1977 109 NI BB NOT_NAMED 1977-11-09 15:00:00 TS 9.77269 89.0055 main 829 780 P________PP___ IO051977 9.75743 88.9999 -1 9.75743 88.9999 TC 9.80320 89.0167 1 10 289
1977313N09092 1977 109 NI BB NOT_NAMED 1977-11-09 18:00:00 TS 9.92639 88.5123 main 780 747 O________OP___ jtwc_io IO051977 9.90000 88.5000 -1 9.90000 88.5000 TC 9.97918 88.5368 1 10 289
1977313N09092 1977 109 NI BB NOT_NAMED 1977-11-09 21:00:00 TS 10.1134 88.0278 main 737 695 P________PP___ IO051977 10.0998 88.0225 -1 10.0998 88.0225 TC 10.1406 88.0386 1 11 291
1977313N09092 1977 109 NI BB NOT_NAMED 1977-11-10 00:00:00 TS 10.3000 87.5000 main 695 641 O________OO___ jtwc_io IO051977 10.3000 87.5000 -1 10.3000 87.5000 TC 10.3000 87.5000 2 12 287
1977313N09092 1977 109 NI BB NOT_NAMED 1977-11-10 03:00:00 TS 10.4679 86.8727 main 645 581 P________PP___ IO051977 10.4500 86.8724 -1 10.4500 86.8724 TC 10.5037 86.8732 2 13 285
1977313N09092 1977 109 NI BB NOT_NAMED 1977-11-10 06:00:00 TS 10.6343 86.2027 main 581 533 O________OP___ jtwc_io IO051977 10.6000 86.2000 -1 10.6000 86.2000 TC 10.7029 86.2081 2 14 286
1977313N09092 1977 109 NI BB NOT_NAMED 1977-11-10 09:00:00 TS 10.8352 85.5364 main 524 480 P________PP___ IO051977 10.8150 85.5351 -1 10.8150 85.5351 TC 10.8756 85.5389 2 13 286
1977313N09092 1977 109 NI BB NOT_NAMED 1977-11-10 12:00:00 TS 11.0000 84.9000 main 480 441 O________OO___ jtwc_io IO051977 11.0000 84.9000 -1 11.0000 84.9000 TC 11.0000 84.9000 2 12 282
1977313N09092 1977 109 NI BB NOT_NAMED 1977-11-10 15:00:00 TS 11.0776 84.3231 main 433 385 P________PP___ IO051977 11.0874 84.3274 -1 11.0874 84.3274 TC 11.0581 84.3143 2 11 275
1977313N09092 1977 109 NI BB NOT_NAMED 1977-11-10 18:00:00 TS 11.0890 83.7890 main 385 340 O________OP___ jtwc_io IO051977 11.1000 83.8000 -1 11.1000 83.8000 TC 11.0671 83.7671 2 10 269
1977313N09092 1977 109 NI BB NOT_NAMED 1977-11-10 21:00:00 TS 11.0575 83.2721 main 340 290 P________PP___ IO051977 11.0649 83.2774 -1 11.0649 83.2774 TC 11.0426 83.2613 2 10 265
1977313N09092 1977 109 NI BB NOT_NAMED 1977-11-11 00:00:00 TS 11.0000 82.8000 main 290 258 O________OO___ jtwc_io IO051977 11.0000 82.8000 -1 11.0000 82.8000 TC 11.0000 82.8000 2 9 263
1977313N09092 1977 109 NI BB NOT_NAMED 1977-11-11 03:00:00 TS 10.9533 82.3749 main 258 222 P________PP___ IO051977 10.9499 82.3775 -1 10.9499 82.3775 TC 10.9600 82.3696 2 8 263
1977313N09092 1977 109 NI BB NOT_NAMED 1977-11-11 06:00:00 TS 10.9024 81.9941 main 222 185 O________OP___ jtwc_io IO051977 10.9000 82.0000 -1 10.9000 82.0000 TC 10.9071 81.9824 2 7 262
1977313N09092 1977 109 NI BB NOT_NAMED 1977-11-11 09:00:00 TS 10.8502 81.6280 main 185 153 P________PP___ IO051977 10.8500 81.6275 -1 10.8500 81.6275 TC 10.8507 81.6290 2 7 261
1977313N09092 1977 109 NI BB NOT_NAMED 1977-11-11 12:00:00 TS 10.8000 81.3000 main 153 131 O________OO___ jtwc_io IO051977 10.8000 81.3000 -1 10.8000 81.3000 TC 10.8000 81.3000 4 6 260
1977313N09092 1977 109 NI BB NOT_NAMED 1977-11-11 15:00:00 TS 10.7493 81.0397 main 120 98 P________PP___ IO051977 10.7424 81.0500 -1 10.7424 81.0500 TC 10.7632 81.0191 4 5 260
1977313N09092 1977 109 NI BB NOT_NAMED 1977-11-11 18:00:00 TS 10.7114 80.7842 main 98 65 O________OP___ jtwc_io IO051977 10.7000 80.8000 -1 10.7000 80.8000 TC 10.7342 80.7525 4 6 265
1977313N09092 1977 109 NI BB NOT_NAMED 1977-11-11 21:00:00 TS 10.7043 80.4783 main 65 21 P________PP___ IO051977 10.6999 80.4875 -1 10.6999 80.4875 TC 10.7131 80.4597 4 7 269
1977313N09092 1977 109 NI BB NOT_NAMED 1977-11-12 00:00:00 TS 10.7000 80.1000 main 21 0 O________OO___ jtwc_io IO051977 10.7000 80.1000 -1 10.7000 80.1000 TC 10.7000 80.1000 4 8 267
1977313N09092 1977 109 NI BB NOT_NAMED 1977-11-12 03:00:00 TS 10.6539 79.6348 main 0 0 P________PP___ IO051977 10.6424 79.6374 -1 10.6424 79.6374 TC 10.6767 79.6298 4 10 265
1977313N09092 1977 109 NI BB NOT_NAMED 1977-11-12 06:00:00 TS 10.6209 79.0965 main 0 0 O________OP___ jtwc_io IO051977 10.6000 79.1000 -1 10.6000 79.1000 TC 10.6626 79.0896 4 11 269
1977313N09092 1977 109 NI BB NOT_NAMED 1977-11-12 09:00:00 TS 10.6407 78.5116 main 0 0 P________PP___ IO051977 10.6275 78.5150 -1 10.6275 78.5150 TC 10.6672 78.5047 4 12 274
1977313N09092 1977 109 NI AS NOT_NAMED 1977-11-12 12:00:00 TS 10.7000 77.9000 main 0 0 O________OO___ jtwc_io IO051977 10.7000 77.9000 -1 10.7000 77.9000 TC 10.7000 77.9000 2 12 277
1977313N09092 1977 109 NI AS NOT_NAMED 1977-11-12 15:00:00 TS 10.7853 77.3021 main 0 0 P________PP___ IO051977 10.7924 77.3000 -1 10.7924 77.3000 TC 10.7711 77.3064 2 12 279
1977313N09092 1977 109 NI AS NOT_NAMED 1977-11-12 18:00:00 TS 10.8900 76.7001 main 0 0 O________OP___ jtwc_io IO051977 10.9000 76.7000 -1 10.9000 76.7000 TC 10.8699 76.7002 2 12 280
1977313N09092 1977 109 NI AS NOT_NAMED 1977-11-12 21:00:00 TS 10.9945 76.0979 main 0 0 P________PP___ IO051977 10.9999 76.1000 -1 10.9999 76.1000 TC 10.9836 76.0939 2 12 280
1977313N09092 1977 109 NI AS NOT_NAMED 1977-11-13 00:00:00 TS 11.1000 75.5000 main 39 39 O________OO___ jtwc_io IO051977 11.1000 75.5000 -1 11.1000 75.5000 TC 11.1000 75.5000 2 12 280
1977313N09092 1977 109 NI AS NOT_NAMED 1977-11-13 03:00:00 TS 11.1986 74.8910 main 83 83 P________PP___ IO051977 11.2000 74.8850 -1 11.2000 74.8850 TC 11.1959 74.9031 2 12 280
1977313N09092 1977 109 NI AS NOT_NAMED 1977-11-13 06:00:00 TS 11.2975 74.3083 main 125 125 O________OP___ jtwc_io IO051977 11.3000 74.3000 -1 11.3000 74.3000 TC 11.2925 74.3250 2 11 280
1977313N09092 1977 109 NI AS NOT_NAMED 1977-11-13 09:00:00 TS 11.3976 73.7698 main 166 166 P________PP___ IO051977 11.3999 73.7625 -1 11.3999 73.7625 TC 11.3928 73.7844 2 10 282
1977313N09092 1977 109 NI AS NOT_NAMED 1977-11-13 12:00:00 TS 11.5000 73.3000 main 210 210 O________OO___ jtwc_io IO051977 11.5000 73.3000 -1 11.5000 73.3000 TC 11.5000 73.3000 1 9 284
1977313N09092 1977 109 NI AS NOT_NAMED 1977-11-13 15:00:00 TS 11.5993 72.9157 main 244 244 P________PP___ IO051977 11.5924 72.9274 -1 11.5924 72.9274 TC 11.6132 72.8924 1 7 287
1977313N09092 1977 109 NI AS NOT_NAMED 1977-11-13 18:00:00 TS 11.7114 72.5799 main 269 269 O________OP___ jtwc_io IO051977 11.7000 72.6000 -1 11.7000 72.6000 TC 11.7343 72.5398 1 7 291
1977313N09092 1977 109 NI AS NOT_NAMED 1977-11-13 21:00:00 TS 11.8494 72.2391 main 304 300 P________PP___ IO051977 11.8425 72.2500 -1 11.8425 72.2500 TC 11.8633 72.2173 1 7 293
1977313N09092 1977 109 NI AS NOT_NAMED 1977-11-14 00:00:00 TS 12.0000 71.9000 main 327 327 O________OO___ jtwc_io IO051977 12.0000 71.9000 -1 12.0000 71.9000 TC 12.0000 71.9000 1 7 294
1977313N09092 1977 109 NI AS NOT_NAMED 1977-11-14 03:00:00 TS 12.1447 71.5607 main 356 356 P________PP___ IO051977 12.1500 71.5500 -1 12.1500 71.5500 TC 12.1342 71.5821 1 7 294
1977313N09092 1977 109 NI AS NOT_NAMED 1977-11-14 06:00:00 TS 12.2923 71.2198 main 394 394 O________OP___ jtwc_io IO051977 12.3000 71.2000 -1 12.3000 71.2000 TC 12.2768 71.2594 1 7 294
1977313N09092 1977 109 NI AS NOT_NAMED 1977-11-14 09:00:00 TS 12.4386 70.8839 main 424 424 P________PP___ IO051977 12.4424 70.8724 -1 12.4424 70.8724 TC 12.4310 70.9070 1 8 294
1977313N09092 1977 109 NI AS NOT_NAMED 1977-11-14 12:00:00 TS 12.6000 70.5000 main 460 460 O________OO___ jtwc_io IO051977 12.6000 70.5000 -1 12.6000 70.5000 TC 12.6000 70.5000 2 9 293
1977313N09092 1977 109 NI AS NOT_NAMED 1977-11-14 15:00:00 TS 12.7970 70.0249 main 493 493 P________PP___ IO051977 12.7924 70.0375 -1 12.7924 70.0375 TC 12.8062 69.9998 2 11 292
1977313N09092 1977 109 NI AS NOT_NAMED 1977-11-14 18:00:00 TS 13.0076 69.4819 main 529 529 O________OP___ jtwc_io IO051977 13.0000 69.5000 -1 13.0000 69.5000 TC 13.0229 69.4456 2 12 291
1977313N09092 1977 109 NI AS NOT_NAMED 1977-11-14 21:00:00 TS 13.2144 68.8945 main 579 579 P________PP___ IO051977 13.2075 68.9075 -1 13.2075 68.9075 TC 13.2280 68.8685 2 12 289
1977313N09092 1977 109 NI AS NOT_NAMED 1977-11-15 00:00:00 TS 13.4000 68.3000 main 631 631 O________OO___ jtwc_io IO051977 13.4000 68.3000 -1 13.4000 68.3000 TC 13.4000 68.3000 2 12 287
1977313N09092 1977 109 NI AS NOT_NAMED 1977-11-15 03:00:00 TS 13.5651 67.7252 main 683 683 P________PP___ IO051977 13.5799 67.7275 -1 13.5799 67.7275 TC 13.5355 67.7205 2 11 284
1977313N09092 1977 109 NI AS NOT_NAMED 1977-11-15 06:00:00 TS 13.6776 67.1883 main 726 726 O________OP___ jtwc_io IO051977 13.7000 67.2000 XX 50 -5 13.7000 67.2000 TC 50 13.6329 67.1649 2 10 279
1977313N09092 1977 109 NI AS NOT_NAMED 1977-11-15 09:00:00 TS 13.7163 66.6905 main 774 774 P________PP___ IO051977 13.7300 66.6974 XX 52 -5 13.7300 66.6974 TC 52 13.6888 66.6768 2 9 271
1977313N09092 1977 109 NI AS NOT_NAMED 1977-11-15 12:00:00 TS 13.7000 66.3000 main 814 814 O________OO___ jtwc_io IO051977 13.7000 66.3000 XX 55 -5 13.7000 66.3000 TC 55 13.7000 66.3000 4 6 265
1977313N09092 1977 109 NI AS NOT_NAMED 1977-11-15 15:00:00 TS 13.6631 66.0445 main 844 844 P________PP___ IO051977 13.6649 66.0325 XX 60 -5 13.6649 66.0325 TC 60 13.6594 66.0686 4 4 254
1977313N09092 1977 109 NI AS NOT_NAMED 1977-11-15 18:00:00 TS 13.5931 65.9166 main 858 858 O________OP___ jtwc_io IO051977 13.6000 65.9000 XX 65 -5 13.6000 65.9000 TC 65 13.5793 65.9498 4 2 222
1977313N09092 1977 109 NI AS NOT_NAMED 1977-11-15 21:00:00 TS 13.4899 65.8821 main 863 863 P________PP___ IO051977 13.4925 65.8700 XX 72 -5 13.4925 65.8700 TC 72 13.4846 65.9062 4 2 185
1977313N09092 1977 109 NI AS NOT_NAMED 1977-11-16 00:00:00 TS 13.4000 65.9000 main 867 867 O________OO___ jtwc_io IO051977 13.4000 65.9000 XX 80 -5 13.4000 65.9000 TC 80 13.4000 65.9000 4 1 165
1977313N09092 1977 109 NI AS NOT_NAMED 1977-11-16 03:00:00 TS 13.3886 65.8918 main 867 867 P________PP___ IO051977 13.3925 65.9000 XX 82 -5 13.3925 65.9000 TC 82 13.3809 65.8754 4 0 0
1977313N09092 1977 109 NI AS NOT_NAMED 1977-11-16 06:00:00 TS 13.3908 65.8925 main 867 867 O________OP___ jtwc_io IO051977 13.4000 65.9000 XX 85 -5 13.4000 65.9000 TC 85 13.3725 65.8776 4 0 0
1977313N09092 1977 109 NI AS NOT_NAMED 1977-11-16 09:00:00 TS 13.3609 65.9020 main 867 867 P________PP___ IO051977 13.3650 65.9075 XX 87 -5 13.3650 65.9075 TC 87 13.3528 65.8910 4 1 0
1977313N09092 1977 109 NI AS NOT_NAMED 1977-11-16 12:00:00 TS 13.3000 65.9000 main 872 872 O________OO___ jtwc_io IO051977 13.3000 65.9000 XX 90 -5 13.3000 65.9000 TC 90 13.3000 65.9000 4 2 196
1977313N09092 1977 109 NI AS NOT_NAMED 1977-11-16 15:00:00 TS 13.2184 65.8539 main 877 877 P________PP___ IO051977 13.2225 65.8500 XX 90 -5 13.2225 65.8500 TC 90 13.2103 65.8617 4 2 203
1977313N09092 1977 109 NI AS NOT_NAMED 1977-11-16 18:00:00 TS 13.0942 65.8066 main 891 891 O________OP___ jtwc_io IO051977 13.1000 65.8000 XX 90 -5 13.1000 65.8000 TC 90 13.0825 65.8198 4 3 193
1977313N09092 1977 109 NI AS NOT_NAMED 1977-11-16 21:00:00 TS 12.9245 65.7876 main 901 901 P________PP___ IO051977 12.9300 65.7850 XX 92 -5 12.9300 65.7850 TC 92 12.9134 65.7929 4 4 0
1977313N09092 1977 109 NI AS NOT_NAMED 1977-11-17 00:00:00 TS 12.7000 65.8000 main 911 911 O________OO___ jtwc_io IO051977 12.7000 65.8000 XX 95 -5 12.7000 65.8000 TC 95 12.7000 65.8000 4 5 176
1977313N09092 1977 109 NI AS NOT_NAMED 1977-11-17 03:00:00 TS 12.4176 65.8343 main 924 919 P________PP___ IO051977 12.4150 65.8275 XX 95 -5 12.4150 65.8275 TC 95 12.4228 65.8479 4 6 170
1977313N09092 1977 109 NI AS NOT_NAMED 1977-11-17 06:00:00 TS 12.1025 65.9109 main 927 922 O________OP___ jtwc_io IO051977 12.1000 65.9000 XX 95 -5 12.1000 65.9000 TC 95 12.1074 65.9326 4 7 163
1977313N09092 1977 109 NI AS NOT_NAMED 1977-11-17 09:00:00 TS 11.7861 66.0354 main 931 920 P________PP___ IO051977 11.7850 66.0275 XX 97 -5 11.7850 66.0275 TC 97 11.7884 66.0510 4 7 155
1977313N09092 1977 109 NI AS NOT_NAMED 1977-11-17 12:00:00 TS 11.5000 66.2000 main 925 916 O________OO___ jtwc_io IO051977 11.5000 66.2000 XX 100 -5 11.5000 66.2000 TC 100 11.5000 66.2000 4 6 146
1977313N09092 1977 109 NI AS NOT_NAMED 1977-11-17 15:00:00 TS 11.2760 66.3868 main 916 908 P________PP___ IO051977 11.2775 66.3925 XX 100 -5 11.2775 66.3925 TC 100 11.2729 66.3753 4 6 136
1977313N09092 1977 109 NI AS NOT_NAMED 1977-11-17 18:00:00 TS 11.0942 66.5925 main 908 893 O________OP___ jtwc_io IO051977 11.1000 66.6000 XX 100 -5 11.1000 66.6000 TC 100 11.0826 66.5775 4 5 131
1977313N09092 1977 109 NI AS NOT_NAMED 1977-11-17 21:00:00 TS 10.9270 66.7970 main 896 878 P________PP___ IO051977 10.9275 66.8000 XX 102 -5 10.9275 66.8000 TC 102 10.9260 66.7910 4 5 126
1977313N09092 1977 109 NI AS NOT_NAMED 1977-11-18 00:00:00 TS 10.8000 67.0000 main 878 860 O________OO___ jtwc_io IO051977 10.8000 67.0000 XX 105 -5 10.8000 67.0000 TC 105 10.8000 67.0000 4 4 117
1977313N09092 1977 109 NI AS NOT_NAMED 1977-11-18 03:00:00 TS 10.7271 67.1976 main 860 839 P________PP___ IO051977 10.7425 67.2075 XX 105 -5 10.7425 67.2075 TC 105 10.6962 67.1780 4 4 109
1977313N09092 1977 109 NI AS NOT_NAMED 1977-11-18 06:00:00 TS 10.6733 67.3833 main 839 832 O________OP___ jtwc_io IO051977 10.7000 67.4000 XX 105 -5 10.7000 67.4000 TC 105 10.6199 67.3498 4 4 113
1977313N09092 1977 109 NI AS NOT_NAMED 1977-11-18 09:00:00 TS 10.5862 67.5406 main 832 815 P________PP___ IO051977 10.6000 67.5500 XX 107 -5 10.6000 67.5500 TC 107 10.5587 67.5218 4 4 119
1977313N09092 1977 109 NI AS NOT_NAMED 1977-11-18 12:00:00 TS 10.5000 67.7000 main 815 798 O________OO___ jtwc_io IO051977 10.5000 67.7000 XX 110 -5 10.5000 67.7000 TC 110 10.5000 67.7000 4 4 114
1977313N09092 1977 109 NI AS NOT_NAMED 1977-11-18 15:00:00 TS 10.4416 67.8763 main 798 778 P________PP___ IO051977 10.4500 67.8925 XX 110 -5 10.4500 67.8925 TC 110 10.4247 67.8440 4 4 108
1977313N09092 1977 109 NI AS NOT_NAMED 1977-11-18 18:00:00 TS 10.3832 68.0675 main 778 772 O________OP___ jtwc_io IO051977 10.4000 68.1000 XX 110 -5 10.4000 68.1000 TC 110 10.3495 68.0024 4 4 113
1977313N09092 1977 109 NI AS NOT_NAMED 1977-11-18 21:00:00 TS 10.2914 68.2449 main 772 746 P________PP___ IO051977 10.2999 68.2625 XX 110 -5 10.2999 68.2625 TC 110 10.2745 68.2096 4 5 113
1977313N09092 1977 109 NI AS NOT_NAMED 1977-11-19 00:00:00 TS 10.2000 68.5000 main 746 710 O________OO___ jtwc_io IO051977 10.2000 68.5000 XX 110 -5 10.2000 68.5000 TC 110 10.2000 68.5000 4 7 103
1977313N09092 1977 109 NI AS NOT_NAMED 1977-11-19 03:00:00 TS 10.1378 68.9111 main 710 661 P________PP___ IO051977 10.1500 68.8975 XX 105 -5 10.1500 68.8975 TC 105 10.1133 68.9383 4 9 98
1977313N09092 1977 109 NI AS NOT_NAMED 1977-11-19 06:00:00 TS 10.0761 69.4184 main 661 618 O________OP___ jtwc_io IO051977 10.1000 69.4000 XX 100 -5 10.1000 69.4000 TC 100 10.0282 69.4553 4 11 98
1977313N09092 1977 109 NI AS NOT_NAMED 1977-11-19 09:00:00 TS 9.98471 69.9749 main 608 564 P________PP___ IO051977 10.0001 69.9651 XX 97 -5 10.0001 69.9651 TC 97 9.95392 69.9946 4 11 99
1977313N09092 1977 109 NI AS NOT_NAMED 1977-11-19 12:00:00 TS 9.90000 70.5000 main 564 530 O________OO___ jtwc_io IO051977 9.90000 70.5000 XX 95 -5 9.90000 70.5000 TC 95 9.90000 70.5000 4 9 99
1977313N09092 1977 109 NI AS NOT_NAMED 1977-11-19 15:00:00 TS 9.83884 70.8843 main 530 501 P________PP___ IO051977 9.82735 70.8800 XX 92 -5 9.82735 70.8800 TC 92 9.86182 70.8931 4 7 97
1977313N09092 1977 109 NI AS NOT_NAMED 1977-11-19 18:00:00 TS 9.81568 71.2150 main 501 473 O________OP___ jtwc_io IO051977 9.80000 71.2000 XX 90 -5 9.80000 71.2000 TC 90 9.84704 71.2450 4 7 90
1977313N09092 1977 109 NI AS NOT_NAMED 1977-11-19 21:00:00 TS 9.83789 71.5581 main 464 430 P________PP___ IO051977 9.82746 71.5500 XX -5 9.82746 71.5500 TC 9.85876 71.5744 4 7 83
1977313N09092 1977 109 NI AS NOT_NAMED 1977-11-20 00:00:00 TS 9.90000 71.9000 main 430 396 O________OO___ jtwc_io IO051977 9.90000 71.9000 -1 9.90000 71.9000 TC 9.90000 71.9000 4 7 78
1977313N09092 1977 109 NI AS NOT_NAMED 1977-11-20 03:00:00 TS 9.98407 72.2621 main 387 354 P________PP___ IO051977 9.99246 72.2500 -1 9.99246 72.2500 TC 9.96729 72.2864 4 7 75
1977313N09092 1977 109 NI AS NOT_NAMED 1977-11-20 06:00:00 TS 10.0876 72.6224 main 354 313 O________OP___ jtwc_io IO051977 10.1000 72.6000 -1 10.1000 72.6000 TC 10.0627 72.6673 4 7 73
1977313N09092 1977 109 NI AS NOT_NAMED 1977-11-20 09:00:00 TS 10.1972 72.9865 main 313 281 P________PP___ IO051977 10.2075 72.9725 -1 10.2075 72.9725 TC 10.1767 73.0145 4 7 72
1977313N09092 1977 109 NI AS NOT_NAMED 1977-11-20 12:00:00 TS 10.3000 73.3000 main 281 265 O________OO___ jtwc_io IO051977 10.3000 73.3000 -1 10.3000 73.3000 TC 10.3000 73.3000 4 6 74
1977313N09092 1977 109 NI AS NOT_NAMED 1977-11-20 15:00:00 TS 10.3449 73.5280 main 265 241 P________PP___ IO051977 10.3350 73.5450 -1 10.3350 73.5450 TC 10.3648 73.4940 4 4 73
1977313N09092 1977 109 NI AS NOT_NAMED 1977-11-20 18:00:00 TS 10.4149 73.6751 main 241 234 O________OP___ jtwc_io IO051977 10.4000 73.7000 -1 10.4000 73.7000 TC 10.4448 73.6253 4 3 46
1977313N09092 1977 109 NI AS NOT_NAMED 1977-11-20 21:00:00 TS 10.5524 73.7497 main 226 203 P________PP___ IO051977 10.5400 73.7651 -1 10.5400 73.7651 TC 10.5774 73.7190 4 4 18
1977313N09092 1977 109 NI AS NOT_NAMED 1977-11-21 00:00:00 TS 10.8000 73.8000 main 203 167 O________OO___ jtwc_io IO051977 10.8000 73.8000 -1 10.8000 73.8000 TC 10.8000 73.8000 4 7 13
1977313N09092 1977 109 NI AS NOT_NAMED 1977-11-21 03:00:00 TS 11.1939 73.8947 main 167 137 P________PP___ IO051977 11.2125 73.8925 -1 11.2125 73.8925 TC 11.1566 73.8991 4 9 13
1977313N09092 1977 109 NI AS NOT_NAMED 1977-11-21 06:00:00 TS 11.6675 73.9976 main 132 103 O________OP___ jtwc_io IO051977 11.7000 74.0000 -1 11.7000 74.0000 TC 11.6025 73.9927 4 10 12
1977313N09092 1977 109 NI AS NOT_NAMED 1977-11-21 09:00:00 TS 12.1324 74.0917 main 103 68 P________PP___ IO051977 12.1500 74.0926 -1 12.1500 74.0926 TC 12.0972 74.0898 4 10 12
1977313N09092 1977 109 NI AS NOT_NAMED 1977-11-21 12:00:00 TS 12.6000 74.2000 main 68 54 O________OO___ jtwc_io IO051977 12.6000 74.2000 -1 12.6000 74.2000 TC 12.6000 74.2000 4 9 15
1977313N09092 1977 109 NI AS NOT_NAMED 1977-11-21 15:00:00 TS 13.0392 74.3403 main 54 21 P________PP___ IO051977 13.0500 74.3425 -1 13.0500 74.3425 TC 13.0176 74.3358 4 9 18
1977313N09092 1977 109 NI AS NOT_NAMED 1977-11-21 18:00:00 TS 13.4800 74.4951 main 21 0 O________OP___ jtwc_io IO051977 13.5000 74.5000 -1 13.5000 74.5000 TC 13.4401 74.4854 4 9 19
1977313N09092 1977 109 NI AS NOT_NAMED 1977-11-21 21:00:00 TS 13.9109 74.6475 main 0 0 P________PP___ IO051977 13.9200 74.6501 -1 13.9200 74.6501 TC 13.8926 74.6422 4 10 18
1977313N09092 1977 109 NI AS NOT_NAMED 1977-11-22 00:00:00 TS 14.4000 74.8000 main 0 0 O________OO___ jtwc_io IO051977 14.4000 74.8000 -1 14.4000 74.8000 TC 14.4000 74.8000 2 12 15
1977313N09092 1977 109 NI AS NOT_NAMED 1977-11-22 03:00:00 TS 15.0257 74.9566 main 0 0 P________PP___ IO051977 15.0200 74.9500 -1 15.0200 74.9500 TC 15.0372 74.9698 2 14 13
1977313N09092 1977 109 NI AS NOT_NAMED 1977-11-22 06:00:00 TS 15.7075 75.1122 main 0 0 O________OP___ jtwc_io IO051977 15.7000 75.1000 -1 15.7000 75.1000 TC 15.7226 75.1367 2 14 13
1977313N09092 1977 109 NI AS NOT_NAMED 1977-11-22 09:00:00 TS 16.3855 75.2717 main 0 0 P________PP___ IO051977 16.3800 75.2649 -1 16.3800 75.2649 TC 16.3966 75.2854 2 13 12
1977313N09092 1977 109 NI AS NOT_NAMED 1977-11-22 12:00:00 TS 17.0000 75.4000 main 0 0 O________OO___ jtwc_io IO051977 17.0000 75.4000 -1 17.0000 75.4000 TC 17.0000 75.4000 1 11 10
1977313N09092 1977 109 NI AS NOT_NAMED 1977-11-22 15:00:00 TS 17.4979 75.4715 main 0 0 P________PP___ IO051977 17.5025 75.4726 -1 17.5025 75.4726 TC 17.4886 75.4693 1 9 6
1977313N09092 1977 109 NI AS NOT_NAMED 1977-11-22 18:00:00 TS 17.8933 75.5002 main 0 0 O________OP___ jtwc_io IO051977 17.9000 75.5000 -1 17.9000 75.5000 TC 17.8798 75.5007 1 7 3
1977313N09092 1977 109 NI AS NOT_NAMED 1977-11-22 21:00:00 TS 18.2154 75.5056 main 0 0 P________PP___ IO051977 18.2200 75.5050 -1 18.2200 75.5050 TC 18.2061 75.5067 1 6 0
1977313N09092 1977 109 NI AS NOT_NAMED 1977-11-23 00:00:00 TS 18.5000 75.5000 main 0 O________OO___ jtwc_io IO051977 18.5000 75.5000 -1 18.5000 75.5000 TC 18.5000 75.5000 1 6 356

About IBTrACS Database

This database is a web-friendly format of International Best Track Archive for Climate Stewardship (IBTrACS), a global best track data archive curated by NOAA dating back to 1842.

Updated: 2021-10-21